This is the latest recevied weather packets stored in our database for station/object Riedlingn. If no packets are shown the sender has not sent any weather packets the latest 10 day(s).
| Time | Temp. | Humidity | Pressure | Rain* | Wind** | Luminosity | Snow |
|---|---|---|---|---|---|---|---|
| 1777629731 | 15° C | 36% | 1032.4 hPa | 0 mm | - | - | - |
| 1777627930 | 14.44° C | 39% | 1032.4 hPa | 0 mm | - | - | - |
| 1777626132 | 12.78° C | 42% | 1032.5 hPa | 0 mm | - | - | - |
| 1777624331 | 11.67° C | 43% | 1032.5 hPa | 0 mm | - | - | - |
| 1777622532 | 10° C | 45% | 1032.3 hPa | 0 mm | - | - | - |
| 1777620733 | 9.44° C | 45% | 1032.5 hPa | 0 mm | - | - | - |
| 1777618930 | 8.89° C | 46% | 1032.5 hPa | 0 mm | - | - | - |
| 1777617131 | 7.78° C | 48% | 1032.3 hPa | 0 mm | - | - | - |
| 1777615333 | 7.22° C | 50% | 1032.3 hPa | 0 mm | - | - | - |
| 1777613531 | 6.11° C | 53% | 1032 hPa | 0 mm | - | - | - |
| 1777611731 | 5° C | 55% | 1031.8 hPa | 0 mm | - | - | - |
| 1777609931 | 4.44° C | 56% | 1031.4 hPa | 0 mm | - | - | - |
| 1777608131 | 5° C | 55% | 1031.4 hPa | 0 mm | - | - | - |
| 1777606332 | 5° C | 54% | 1031.5 hPa | 0 mm | - | - | - |
| 1777604532 | 5.56° C | 53% | 1031.6 hPa | 0 mm | - | - | - |
| 1777602733 | 6.11° C | 51% | 1031.6 hPa | 0 mm | - | - | - |
| 1777600931 | 6.11° C | 51% | 1031.6 hPa | 0 mm | - | - | - |
| 1777599131 | 6.11° C | 50% | 1031.6 hPa | 0 mm | - | - | - |
| 1777597332 | 6.67° C | 49% | 1031.7 hPa | 0 mm | - | - | - |
| 1777595529 | 6.11° C | 51% | 1031.7 hPa | 0 mm | - | - | - |
| 1777593730 | 6.11° C | 50% | 1031.6 hPa | 0 mm | - | - | - |
| 1777591929 | 6.67° C | 49% | 1031.7 hPa | 0 mm | - | - | - |
| 1777590129 | 7.78° C | 45% | 1031.7 hPa | 0 mm | - | - | - |
| 1777588329 | 8.33° C | 42% | 1031.6 hPa | 0 mm | - | - | - |
| 1777586529 | 8.89° C | 42% | 1031.6 hPa | 0 mm | - | - | - |
* Rain since midnight (hover to see other rain measurements)
** Current wind speed in m/s (hover to see current wind gust speed)